sensor_id;sensor_type;location;lat;lon;timestamp;P1;durP1;ratioP1;P2;durP2;ratioP2
19207;SDS011;9737;59.466;18.036;2022-07-17T00:00:46;0.90;;;0.90;;
19207;SDS011;9737;59.466;18.036;2022-07-17T00:03:14;0.90;;;0.90;;
19207;SDS011;9737;59.466;18.036;2022-07-17T00:05:44;1.40;;;1.05;;
19207;SDS011;9737;59.466;18.036;2022-07-17T00:08:12;2.30;;;0.80;;
19207;SDS011;9737;59.466;18.036;2022-07-17T00:10:43;0.80;;;0.80;;
19207;SDS011;9737;59.466;18.036;2022-07-17T00:13:12;1.67;;;0.95;;
19207;SDS011;9737;59.466;18.036;2022-07-17T00:15:40;1.60;;;0.90;;
19207;SDS011;9737;59.466;18.036;2022-07-17T00:18:09;4.22;;;0.77;;
19207;SDS011;9737;59.466;18.036;2022-07-17T00:20:37;0.80;;;0.80;;
19207;SDS011;9737;59.466;18.036;2022-07-17T00:23:06;1.65;;;0.80;;
19207;SDS011;9737;59.466;18.036;2022-07-17T00:25:34;1.40;;;0.90;;
19207;SDS011;9737;59.466;18.036;2022-07-17T00:28:04;1.10;;;0.77;;
19207;SDS011;9737;59.466;18.036;2022-07-17T00:30:34;0.80;;;0.80;;
19207;SDS011;9737;59.466;18.036;2022-07-17T00:33:03;0.73;;;0.73;;
19207;SDS011;9737;59.466;18.036;2022-07-17T00:35:32;2.80;;;0.80;;
19207;SDS011;9737;59.466;18.036;2022-07-17T00:38:06;0.95;;;0.82;;
19207;SDS011;9737;59.466;18.036;2022-07-17T00:40:34;0.70;;;0.70;;
19207;SDS011;9737;59.466;18.036;2022-07-17T00:43:02;0.85;;;0.85;;
19207;SDS011;9737;59.466;18.036;2022-07-17T00:45:30;1.70;;;0.80;;
19207;SDS011;9737;59.466;18.036;2022-07-17T00:48:01;1.13;;;0.80;;
19207;SDS011;9737;59.466;18.036;2022-07-17T00:50:32;1.15;;;0.80;;
19207;SDS011;9737;59.466;18.036;2022-07-17T00:53:01;1.95;;;0.88;;
19207;SDS011;9737;59.466;18.036;2022-07-17T00:55:30;1.60;;;0.90;;
19207;SDS011;9737;59.466;18.036;2022-07-17T00:58:16;0.80;;;0.80;;
19207;SDS011;9737;59.466;18.036;2022-07-17T01:00:48;0.80;;;0.80;;
19207;SDS011;9737;59.466;18.036;2022-07-17T01:03:19;0.90;;;0.90;;
19207;SDS011;9737;59.466;18.036;2022-07-17T01:05:48;1.55;;;0.80;;
19207;SDS011;9737;59.466;18.036;2022-07-17T01:08:16;0.82;;;0.82;;
19207;SDS011;9737;59.466;18.036;2022-07-17T01:10:45;0.70;;;0.70;;
19207;SDS011;9737;59.466;18.036;2022-07-17T01:13:13;0.80;;;0.80;;
19207;SDS011;9737;59.466;18.036;2022-07-17T01:15:41;0.88;;;0.88;;
19207;SDS011;9737;59.466;18.036;2022-07-17T01:18:10;1.00;;;1.00;;
19207;SDS011;9737;59.466;18.036;2022-07-17T01:20:43;1.70;;;0.80;;
19207;SDS011;9737;59.466;18.036;2022-07-17T01:23:13;0.70;;;0.70;;
19207;SDS011;9737;59.466;18.036;2022-07-17T01:25:42;0.73;;;0.73;;
19207;SDS011;9737;59.466;18.036;2022-07-17T01:28:10;0.80;;;0.80;;
19207;SDS011;9737;59.466;18.036;2022-07-17T01:30:44;1.17;;;0.80;;
19207;SDS011;9737;59.466;18.036;2022-07-17T01:33:13;0.70;;;0.70;;
19207;SDS011;9737;59.466;18.036;2022-07-17T01:35:41;1.15;;;0.90;;
19207;SDS011;9737;59.466;18.036;2022-07-17T01:38:10;0.80;;;0.80;;
19207;SDS011;9737;59.466;18.036;2022-07-17T01:40:39;0.80;;;0.80;;
19207;SDS011;9737;59.466;18.036;2022-07-17T01:43:07;2.35;;;1.00;;
19207;SDS011;9737;59.466;18.036;2022-07-17T01:45:36;0.75;;;0.75;;
19207;SDS011;9737;59.466;18.036;2022-07-17T01:48:05;1.00;;;0.93;;
19207;SDS011;9737;59.466;18.036;2022-07-17T01:50:33;2.55;;;0.82;;
19207;SDS011;9737;59.466;18.036;2022-07-17T01:53:01;0.80;;;0.80;;
19207;SDS011;9737;59.466;18.036;2022-07-17T01:55:29;1.00;;;0.80;;
19207;SDS011;9737;59.466;18.036;2022-07-17T01:57:59;0.82;;;0.80;;
19207;SDS011;9737;59.466;18.036;2022-07-17T02:00:26;0.80;;;0.80;;
19207;SDS011;9737;59.466;18.036;2022-07-17T02:02:55;0.80;;;0.80;;
19207;SDS011;9737;59.466;18.036;2022-07-17T02:05:23;0.82;;;0.82;;
19207;SDS011;9737;59.466;18.036;2022-07-17T02:07:51;1.33;;;0.95;;
19207;SDS011;9737;59.466;18.036;2022-07-17T02:10:19;0.80;;;0.80;;
19207;SDS011;9737;59.466;18.036;2022-07-17T02:12:47;2.03;;;0.80;;
19207;SDS011;9737;59.466;18.036;2022-07-17T02:15:17;0.82;;;0.82;;
19207;SDS011;9737;59.466;18.036;2022-07-17T02:17:44;0.88;;;0.88;;
19207;SDS011;9737;59.466;18.036;2022-07-17T02:20:12;1.05;;;0.95;;
19207;SDS011;9737;59.466;18.036;2022-07-17T02:22:40;0.80;;;0.80;;
19207;SDS011;9737;59.466;18.036;2022-07-17T02:25:09;0.90;;;0.90;;
19207;SDS011;9737;59.466;18.036;2022-07-17T02:27:37;0.90;;;0.90;;
19207;SDS011;9737;59.466;18.036;2022-07-17T02:30:07;0.80;;;0.80;;
19207;SDS011;9737;59.466;18.036;2022-07-17T02:32:39;0.80;;;0.80;;
19207;SDS011;9737;59.466;18.036;2022-07-17T02:35:08;0.80;;;0.80;;
19207;SDS011;9737;59.466;18.036;2022-07-17T02:37:37;0.80;;;0.80;;
19207;SDS011;9737;59.466;18.036;2022-07-17T02:40:09;0.90;;;0.90;;
19207;SDS011;9737;59.466;18.036;2022-07-17T02:42:37;0.93;;;0.90;;
19207;SDS011;9737;59.466;18.036;2022-07-17T02:45:06;0.90;;;0.90;;
19207;SDS011;9737;59.466;18.036;2022-07-17T02:47:36;0.82;;;0.82;;
19207;SDS011;9737;59.466;18.036;2022-07-17T02:50:06;0.82;;;0.82;;
19207;SDS011;9737;59.466;18.036;2022-07-17T02:52:36;1.08;;;0.98;;
19207;SDS011;9737;59.466;18.036;2022-07-17T02:55:04;1.05;;;0.90;;
19207;SDS011;9737;59.466;18.036;2022-07-17T02:57:33;0.70;;;0.70;;
19207;SDS011;9737;59.466;18.036;2022-07-17T03:00:01;0.90;;;0.90;;
19207;SDS011;9737;59.466;18.036;2022-07-17T03:02:30;1.13;;;0.80;;
19207;SDS011;9737;59.466;18.036;2022-07-17T03:04:58;1.00;;;0.93;;
19207;SDS011;9737;59.466;18.036;2022-07-17T03:07:28;1.38;;;0.90;;
19207;SDS011;9737;59.466;18.036;2022-07-17T03:09:57;1.10;;;0.90;;
19207;SDS011;9737;59.466;18.036;2022-07-17T03:12:24;0.85;;;0.85;;
19207;SDS011;9737;59.466;18.036;2022-07-17T03:14:52;0.82;;;0.82;;
19207;SDS011;9737;59.466;18.036;2022-07-17T03:17:21;1.85;;;0.80;;
19207;SDS011;9737;59.466;18.036;2022-07-17T03:19:48;4.38;;;1.00;;
19207;SDS011;9737;59.466;18.036;2022-07-17T03:22:19;0.75;;;0.75;;
19207;SDS011;9737;59.466;18.036;2022-07-17T03:24:48;0.90;;;0.90;;
19207;SDS011;9737;59.466;18.036;2022-07-17T03:27:16;0.90;;;0.90;;
19207;SDS011;9737;59.466;18.036;2022-07-17T03:29:44;0.75;;;0.70;;
19207;SDS011;9737;59.466;18.036;2022-07-17T03:32:13;2.33;;;1.02;;
19207;SDS011;9737;59.466;18.036;2022-07-17T03:34:42;0.80;;;0.80;;
19207;SDS011;9737;59.466;18.036;2022-07-17T03:37:10;0.80;;;0.80;;
19207;SDS011;9737;59.466;18.036;2022-07-17T03:39:38;0.80;;;0.80;;
19207;SDS011;9737;59.466;18.036;2022-07-17T03:42:08;0.70;;;0.70;;
19207;SDS011;9737;59.466;18.036;2022-07-17T03:44:36;0.80;;;0.80;;
19207;SDS011;9737;59.466;18.036;2022-07-17T03:47:04;1.33;;;0.90;;
19207;SDS011;9737;59.466;18.036;2022-07-17T03:49:32;1.90;;;0.80;;
19207;SDS011;9737;59.466;18.036;2022-07-17T03:52:00;0.63;;;0.63;;
19207;SDS011;9737;59.466;18.036;2022-07-17T03:54:29;0.80;;;0.80;;
19207;SDS011;9737;59.466;18.036;2022-07-17T03:56:58;0.80;;;0.80;;
19207;SDS011;9737;59.466;18.036;2022-07-17T03:59:28;1.73;;;0.90;;
19207;SDS011;9737;59.466;18.036;2022-07-17T04:01:56;1.30;;;0.90;;
19207;SDS011;9737;59.466;18.036;2022-07-17T04:04:24;2.92;;;0.80;;
19207;SDS011;9737;59.466;18.036;2022-07-17T04:06:52;0.90;;;0.90;;
19207;SDS011;9737;59.466;18.036;2022-07-17T04:09:20;0.98;;;0.98;;
19207;SDS011;9737;59.466;18.036;2022-07-17T04:11:48;1.30;;;0.95;;
19207;SDS011;9737;59.466;18.036;2022-07-17T04:14:16;0.80;;;0.80;;
19207;SDS011;9737;59.466;18.036;2022-07-17T04:16:45;0.88;;;0.70;;
19207;SDS011;9737;59.466;18.036;2022-07-17T04:19:13;3.00;;;0.80;;
19207;SDS011;9737;59.466;18.036;2022-07-17T04:21:41;0.70;;;0.70;;
19207;SDS011;9737;59.466;18.036;2022-07-17T04:24:09;1.30;;;0.80;;
19207;SDS011;9737;59.466;18.036;2022-07-17T04:26:37;0.93;;;0.90;;
19207;SDS011;9737;59.466;18.036;2022-07-17T04:29:05;0.70;;;0.70;;
19207;SDS011;9737;59.466;18.036;2022-07-17T04:31:33;1.90;;;0.70;;
19207;SDS011;9737;59.466;18.036;2022-07-17T04:34:03;0.65;;;0.65;;
19207;SDS011;9737;59.466;18.036;2022-07-17T04:36:31;0.75;;;0.75;;
19207;SDS011;9737;59.466;18.036;2022-07-17T04:38:58;3.03;;;0.80;;
19207;SDS011;9737;59.466;18.036;2022-07-17T04:41:27;0.70;;;0.70;;
19207;SDS011;9737;59.466;18.036;2022-07-17T04:43:55;0.65;;;0.65;;
19207;SDS011;9737;59.466;18.036;2022-07-17T04:46:23;0.70;;;0.70;;
19207;SDS011;9737;59.466;18.036;2022-07-17T04:48:51;1.05;;;0.70;;
19207;SDS011;9737;59.466;18.036;2022-07-17T04:51:20;0.70;;;0.70;;
19207;SDS011;9737;59.466;18.036;2022-07-17T04:53:48;0.70;;;0.70;;
19207;SDS011;9737;59.466;18.036;2022-07-17T04:56:16;0.70;;;0.70;;
19207;SDS011;9737;59.466;18.036;2022-07-17T04:58:44;0.60;;;0.60;;
19207;SDS011;9737;59.466;18.036;2022-07-17T05:01:12;0.60;;;0.60;;
19207;SDS011;9737;59.466;18.036;2022-07-17T05:03:40;0.60;;;0.60;;
19207;SDS011;9737;59.466;18.036;2022-07-17T05:06:08;0.60;;;0.60;;
19207;SDS011;9737;59.466;18.036;2022-07-17T05:08:38;0.60;;;0.60;;
19207;SDS011;9737;59.466;18.036;2022-07-17T05:11:06;0.63;;;0.60;;
19207;SDS011;9737;59.466;18.036;2022-07-17T05:13:34;0.70;;;0.70;;
19207;SDS011;9737;59.466;18.036;2022-07-17T05:16:02;0.60;;;0.60;;
19207;SDS011;9737;59.466;18.036;2022-07-17T05:18:31;0.60;;;0.60;;
19207;SDS011;9737;59.466;18.036;2022-07-17T05:20:58;0.70;;;0.70;;
19207;SDS011;9737;59.466;18.036;2022-07-17T05:23:26;0.50;;;0.50;;
19207;SDS011;9737;59.466;18.036;2022-07-17T05:25:56;0.68;;;0.68;;
19207;SDS011;9737;59.466;18.036;2022-07-17T05:28:24;0.60;;;0.60;;
19207;SDS011;9737;59.466;18.036;2022-07-17T05:30:52;1.75;;;0.82;;
19207;SDS011;9737;59.466;18.036;2022-07-17T05:33:20;0.50;;;0.50;;
19207;SDS011;9737;59.466;18.036;2022-07-17T05:35:48;1.58;;;0.60;;
19207;SDS011;9737;59.466;18.036;2022-07-17T05:38:16;0.70;;;0.70;;
19207;SDS011;9737;59.466;18.036;2022-07-17T05:40:45;0.60;;;0.60;;
19207;SDS011;9737;59.466;18.036;2022-07-17T05:43:14;1.38;;;0.70;;
19207;SDS011;9737;59.466;18.036;2022-07-17T05:45:42;0.63;;;0.63;;
19207;SDS011;9737;59.466;18.036;2022-07-17T05:48:10;0.90;;;0.63;;
19207;SDS011;9737;59.466;18.036;2022-07-17T05:50:38;2.80;;;0.52;;
19207;SDS011;9737;59.466;18.036;2022-07-17T05:53:06;0.50;;;0.50;;
19207;SDS011;9737;59.466;18.036;2022-07-17T05:55:34;0.85;;;0.60;;
19207;SDS011;9737;59.466;18.036;2022-07-17T05:58:02;0.43;;;0.43;;
19207;SDS011;9737;59.466;18.036;2022-07-17T06:00:31;0.47;;;0.47;;
19207;SDS011;9737;59.466;18.036;2022-07-17T06:03:00;0.40;;;0.40;;
19207;SDS011;9737;59.466;18.036;2022-07-17T06:05:29;2.28;;;0.60;;
19207;SDS011;9737;59.466;18.036;2022-07-17T06:07:57;0.50;;;0.50;;
19207;SDS011;9737;59.466;18.036;2022-07-17T06:10:25;0.50;;;0.50;;
19207;SDS011;9737;59.466;18.036;2022-07-17T06:12:54;0.68;;;0.68;;
19207;SDS011;9737;59.466;18.036;2022-07-17T06:15:22;0.60;;;0.60;;
19207;SDS011;9737;59.466;18.036;2022-07-17T06:17:52;0.50;;;0.50;;
19207;SDS011;9737;59.466;18.036;2022-07-17T06:20:20;0.65;;;0.60;;
19207;SDS011;9737;59.466;18.036;2022-07-17T06:22:48;0.57;;;0.57;;
19207;SDS011;9737;59.466;18.036;2022-07-17T06:25:16;0.82;;;0.70;;
19207;SDS011;9737;59.466;18.036;2022-07-17T06:27:44;0.60;;;0.60;;
19207;SDS011;9737;59.466;18.036;2022-07-17T06:30:12;0.50;;;0.50;;
19207;SDS011;9737;59.466;18.036;2022-07-17T06:32:42;0.90;;;0.90;;
19207;SDS011;9737;59.466;18.036;2022-07-17T06:35:12;0.60;;;0.60;;
19207;SDS011;9737;59.466;18.036;2022-07-17T06:37:39;1.65;;;0.50;;
19207;SDS011;9737;59.466;18.036;2022-07-17T06:40:08;0.60;;;0.60;;
19207;SDS011;9737;59.466;18.036;2022-07-17T06:42:36;1.55;;;0.60;;
19207;SDS011;9737;59.466;18.036;2022-07-17T06:45:04;0.60;;;0.60;;
19207;SDS011;9737;59.466;18.036;2022-07-17T06:47:33;0.60;;;0.60;;
19207;SDS011;9737;59.466;18.036;2022-07-17T06:50:01;0.60;;;0.60;;
19207;SDS011;9737;59.466;18.036;2022-07-17T06:52:30;0.50;;;0.50;;
19207;SDS011;9737;59.466;18.036;2022-07-17T06:54:59;0.52;;;0.52;;
19207;SDS011;9737;59.466;18.036;2022-07-17T06:57:27;0.40;;;0.40;;
19207;SDS011;9737;59.466;18.036;2022-07-17T06:59:56;0.90;;;0.50;;
19207;SDS011;9737;59.466;18.036;2022-07-17T07:02:24;0.50;;;0.50;;
19207;SDS011;9737;59.466;18.036;2022-07-17T07:04:52;0.50;;;0.50;;
19207;SDS011;9737;59.466;18.036;2022-07-17T07:07:20;0.60;;;0.60;;
19207;SDS011;9737;59.466;18.036;2022-07-17T07:09:49;0.52;;;0.52;;
19207;SDS011;9737;59.466;18.036;2022-07-17T07:12:17;0.50;;;0.50;;
19207;SDS011;9737;59.466;18.036;2022-07-17T07:14:45;0.50;;;0.50;;
19207;SDS011;9737;59.466;18.036;2022-07-17T07:17:13;1.75;;;0.50;;
19207;SDS011;9737;59.466;18.036;2022-07-17T07:19:42;0.43;;;0.43;;
19207;SDS011;9737;59.466;18.036;2022-07-17T07:22:09;0.50;;;0.50;;
19207;SDS011;9737;59.466;18.036;2022-07-17T07:24:37;0.50;;;0.50;;
19207;SDS011;9737;59.466;18.036;2022-07-17T07:27:07;0.50;;;0.50;;
19207;SDS011;9737;59.466;18.036;2022-07-17T07:29:35;2.35;;;0.50;;
19207;SDS011;9737;59.466;18.036;2022-07-17T07:32:03;0.50;;;0.50;;
19207;SDS011;9737;59.466;18.036;2022-07-17T07:34:32;1.55;;;0.60;;
19207;SDS011;9737;59.466;18.036;2022-07-17T07:37:00;0.50;;;0.50;;
19207;SDS011;9737;59.466;18.036;2022-07-17T07:39:28;0.50;;;0.50;;
19207;SDS011;9737;59.466;18.036;2022-07-17T07:41:55;0.40;;;0.40;;
19207;SDS011;9737;59.466;18.036;2022-07-17T07:44:25;0.47;;;0.47;;
19207;SDS011;9737;59.466;18.036;2022-07-17T07:46:57;0.40;;;0.40;;
19207;SDS011;9737;59.466;18.036;2022-07-17T07:49:25;1.27;;;1.10;;
19207;SDS011;9737;59.466;18.036;2022-07-17T07:51:54;2.20;;;0.50;;
19207;SDS011;9737;59.466;18.036;2022-07-17T07:54:30;0.75;;;0.40;;
19207;SDS011;9737;59.466;18.036;2022-07-17T07:56:58;0.95;;;0.40;;
19207;SDS011;9737;59.466;18.036;2022-07-17T07:59:28;0.50;;;0.50;;
19207;SDS011;9737;59.466;18.036;2022-07-17T08:01:59;1.42;;;0.50;;
19207;SDS011;9737;59.466;18.036;2022-07-17T08:04:27;0.60;;;0.60;;
19207;SDS011;9737;59.466;18.036;2022-07-17T08:06:55;0.77;;;0.50;;
19207;SDS011;9737;59.466;18.036;2022-07-17T08:09:23;0.40;;;0.40;;
19207;SDS011;9737;59.466;18.036;2022-07-17T08:11:51;0.40;;;0.40;;
19207;SDS011;9737;59.466;18.036;2022-07-17T08:14:19;0.40;;;0.40;;
19207;SDS011;9737;59.466;18.036;2022-07-17T08:16:49;0.95;;;0.43;;
19207;SDS011;9737;59.466;18.036;2022-07-17T08:19:17;0.40;;;0.40;;
19207;SDS011;9737;59.466;18.036;2022-07-17T08:21:45;1.90;;;0.35;;
19207;SDS011;9737;59.466;18.036;2022-07-17T08:24:13;0.63;;;0.40;;
19207;SDS011;9737;59.466;18.036;2022-07-17T08:26:42;0.50;;;0.50;;
19207;SDS011;9737;59.466;18.036;2022-07-17T08:29:10;0.40;;;0.40;;
19207;SDS011;9737;59.466;18.036;2022-07-17T08:31:39;0.52;;;0.52;;
19207;SDS011;9737;59.466;18.036;2022-07-17T08:34:08;0.40;;;0.40;;
19207;SDS011;9737;59.466;18.036;2022-07-17T08:36:36;0.40;;;0.40;;
19207;SDS011;9737;59.466;18.036;2022-07-17T08:39:05;0.40;;;0.40;;
19207;SDS011;9737;59.466;18.036;2022-07-17T08:41:35;0.75;;;0.40;;
19207;SDS011;9737;59.466;18.036;2022-07-17T08:44:04;0.40;;;0.40;;
19207;SDS011;9737;59.466;18.036;2022-07-17T08:46:34;1.75;;;0.35;;
19207;SDS011;9737;59.466;18.036;2022-07-17T08:49:05;0.30;;;0.30;;
19207;SDS011;9737;59.466;18.036;2022-07-17T08:51:35;0.40;;;0.40;;
19207;SDS011;9737;59.466;18.036;2022-07-17T08:54:11;4.28;;;0.50;;
19207;SDS011;9737;59.466;18.036;2022-07-17T08:56:39;0.38;;;0.38;;
19207;SDS011;9737;59.466;18.036;2022-07-17T08:59:08;1.13;;;0.40;;
19207;SDS011;9737;59.466;18.036;2022-07-17T09:01:35;1.80;;;0.40;;
19207;SDS011;9737;59.466;18.036;2022-07-17T09:04:04;0.30;;;0.30;;
19207;SDS011;9737;59.466;18.036;2022-07-17T09:06:35;0.30;;;0.30;;
19207;SDS011;9737;59.466;18.036;2022-07-17T09:09:05;0.52;;;0.43;;
19207;SDS011;9737;59.466;18.036;2022-07-17T09:11:44;4.13;;;0.45;;
19207;SDS011;9737;59.466;18.036;2022-07-17T09:14:14;0.73;;;0.45;;
19207;SDS011;9737;59.466;18.036;2022-07-17T09:16:52;0.43;;;0.43;;
19207;SDS011;9737;59.466;18.036;2022-07-17T09:19:25;0.40;;;0.40;;
19207;SDS011;9737;59.466;18.036;2022-07-17T09:22:04;0.40;;;0.40;;
19207;SDS011;9737;59.466;18.036;2022-07-17T09:24:39;1.02;;;0.50;;
19207;SDS011;9737;59.466;18.036;2022-07-17T09:27:09;4.50;;;0.60;;
19207;SDS011;9737;59.466;18.036;2022-07-17T09:29:49;1.83;;;0.40;;
19207;SDS011;9737;59.466;18.036;2022-07-17T09:32:22;0.40;;;0.40;;
19207;SDS011;9737;59.466;18.036;2022-07-17T09:34:52;0.40;;;0.40;;
19207;SDS011;9737;59.466;18.036;2022-07-17T09:37:23;1.65;;;0.40;;
19207;SDS011;9737;59.466;18.036;2022-07-17T09:39:52;0.43;;;0.40;;
19207;SDS011;9737;59.466;18.036;2022-07-17T09:42:24;0.90;;;0.30;;
19207;SDS011;9737;59.466;18.036;2022-07-17T09:44:56;0.30;;;0.30;;
19207;SDS011;9737;59.466;18.036;2022-07-17T09:47:26;0.40;;;0.40;;
19207;SDS011;9737;59.466;18.036;2022-07-17T09:49:57;0.38;;;0.38;;
19207;SDS011;9737;59.466;18.036;2022-07-17T09:52:28;0.52;;;0.52;;
19207;SDS011;9737;59.466;18.036;2022-07-17T09:54:58;3.08;;;0.43;;
19207;SDS011;9737;59.466;18.036;2022-07-17T09:57:47;0.20;;;0.20;;
19207;SDS011;9737;59.466;18.036;2022-07-17T10:00:16;0.22;;;0.20;;
19207;SDS011;9737;59.466;18.036;2022-07-17T10:02:49;0.20;;;0.20;;
19207;SDS011;9737;59.466;18.036;2022-07-17T10:05:18;0.20;;;0.20;;
19207;SDS011;9737;59.466;18.036;2022-07-17T10:07:48;1.92;;;0.30;;
19207;SDS011;9737;59.466;18.036;2022-07-17T10:10:17;0.20;;;0.20;;
19207;SDS011;9737;59.466;18.036;2022-07-17T10:12:47;0.20;;;0.20;;
19207;SDS011;9737;59.466;18.036;2022-07-17T10:15:17;0.90;;;0.20;;
19207;SDS011;9737;59.466;18.036;2022-07-17T10:17:46;0.20;;;0.20;;
19207;SDS011;9737;59.466;18.036;2022-07-17T10:20:23;2.95;;;0.20;;
19207;SDS011;9737;59.466;18.036;2022-07-17T10:22:53;0.60;;;0.20;;
19207;SDS011;9737;59.466;18.036;2022-07-17T10:25:21;0.25;;;0.25;;
19207;SDS011;9737;59.466;18.036;2022-07-17T10:27:51;0.70;;;0.20;;
19207;SDS011;9737;59.466;18.036;2022-07-17T10:30:22;1.77;;;0.20;;
19207;SDS011;9737;59.466;18.036;2022-07-17T10:32:56;0.20;;;0.20;;
19207;SDS011;9737;59.466;18.036;2022-07-17T10:35:27;0.32;;;0.17;;
19207;SDS011;9737;59.466;18.036;2022-07-17T10:38:08;0.20;;;0.20;;
19207;SDS011;9737;59.466;18.036;2022-07-17T10:40:37;0.30;;;0.20;;
19207;SDS011;9737;59.466;18.036;2022-07-17T10:43:06;0.20;;;0.20;;
19207;SDS011;9737;59.466;18.036;2022-07-17T10:45:36;0.68;;;0.10;;
19207;SDS011;9737;59.466;18.036;2022-07-17T10:48:07;0.20;;;0.20;;
19207;SDS011;9737;59.466;18.036;2022-07-17T10:50:36;0.65;;;0.20;;
19207;SDS011;9737;59.466;18.036;2022-07-17T10:53:09;0.20;;;0.20;;
19207;SDS011;9737;59.466;18.036;2022-07-17T10:55:45;0.10;;;0.10;;
19207;SDS011;9737;59.466;18.036;2022-07-17T10:58:20;2.58;;;0.28;;
19207;SDS011;9737;59.466;18.036;2022-07-17T11:01:01;0.80;;;0.10;;
19207;SDS011;9737;59.466;18.036;2022-07-17T11:03:35;0.32;;;0.25;;
19207;SDS011;9737;59.466;18.036;2022-07-17T11:06:09;0.10;;;0.10;;
19207;SDS011;9737;59.466;18.036;2022-07-17T11:08:51;0.60;;;0.25;;
19207;SDS011;9737;59.466;18.036;2022-07-17T11:11:21;0.10;;;0.10;;
19207;SDS011;9737;59.466;18.036;2022-07-17T11:14:06;1.85;;;0.25;;
19207;SDS011;9737;59.466;18.036;2022-07-17T11:16:34;0.10;;;0.10;;
19207;SDS011;9737;59.466;18.036;2022-07-17T11:19:03;0.30;;;0.20;;
19207;SDS011;9737;59.466;18.036;2022-07-17T11:21:31;0.35;;;0.20;;
19207;SDS011;9737;59.466;18.036;2022-07-17T11:24:03;0.00;;;0.00;;
19207;SDS011;9737;59.466;18.036;2022-07-17T11:26:32;0.52;;;0.10;;
19207;SDS011;9737;59.466;18.036;2022-07-17T11:28:59;0.70;;;0.10;;
19207;SDS011;9737;59.466;18.036;2022-07-17T11:31:28;0.32;;;0.20;;
19207;SDS011;9737;59.466;18.036;2022-07-17T11:33:58;0.10;;;0.10;;
19207;SDS011;9737;59.466;18.036;2022-07-17T11:36:28;0.10;;;0.10;;
19207;SDS011;9737;59.466;18.036;2022-07-17T11:38:58;1.02;;;0.10;;
19207;SDS011;9737;59.466;18.036;2022-07-17T11:41:34;0.20;;;0.20;;
19207;SDS011;9737;59.466;18.036;2022-07-17T11:44:04;0.55;;;0.10;;
19207;SDS011;9737;59.466;18.036;2022-07-17T11:46:33;0.57;;;0.10;;
19207;SDS011;9737;59.466;18.036;2022-07-17T11:49:02;0.10;;;0.10;;
19207;SDS011;9737;59.466;18.036;2022-07-17T11:51:34;0.13;;;0.00;;
19207;SDS011;9737;59.466;18.036;2022-07-17T11:54:07;0.30;;;0.10;;
19207;SDS011;9737;59.466;18.036;2022-07-17T11:56:37;0.35;;;0.10;;
19207;SDS011;9737;59.466;18.036;2022-07-17T11:59:06;0.10;;;0.10;;
19207;SDS011;9737;59.466;18.036;2022-07-17T12:01:37;0.00;;;0.00;;
19207;SDS011;9737;59.466;18.036;2022-07-17T12:04:07;0.10;;;0.10;;
19207;SDS011;9737;59.466;18.036;2022-07-17T12:06:42;0.13;;;0.00;;
19207;SDS011;9737;59.466;18.036;2022-07-17T12:09:12;0.10;;;0.10;;
19207;SDS011;9737;59.466;18.036;2022-07-17T12:11:49;1.05;;;0.10;;
19207;SDS011;9737;59.466;18.036;2022-07-17T12:14:17;0.10;;;0.10;;
19207;SDS011;9737;59.466;18.036;2022-07-17T12:16:46;0.10;;;0.10;;
19207;SDS011;9737;59.466;18.036;2022-07-17T12:19:15;0.20;;;0.10;;
19207;SDS011;9737;59.466;18.036;2022-07-17T12:21:46;0.30;;;0.30;;
19207;SDS011;9737;59.466;18.036;2022-07-17T12:24:26;2.30;;;0.40;;
19207;SDS011;9737;59.466;18.036;2022-07-17T12:26:57;0.25;;;0.25;;
19207;SDS011;9737;59.466;18.036;2022-07-17T12:29:26;0.30;;;0.30;;
19207;SDS011;9737;59.466;18.036;2022-07-17T12:32:01;1.13;;;0.30;;
19207;SDS011;9737;59.466;18.036;2022-07-17T12:34:31;0.45;;;0.40;;
19207;SDS011;9737;59.466;18.036;2022-07-17T12:36:59;0.80;;;0.30;;
19207;SDS011;9737;59.466;18.036;2022-07-17T12:39:29;1.77;;;0.30;;
19207;SDS011;9737;59.466;18.036;2022-07-17T12:41:58;0.20;;;0.20;;
19207;SDS011;9737;59.466;18.036;2022-07-17T12:44:26;1.40;;;0.20;;
19207;SDS011;9737;59.466;18.036;2022-07-17T12:46:54;0.22;;;0.22;;
19207;SDS011;9737;59.466;18.036;2022-07-17T12:49:22;0.32;;;0.32;;
19207;SDS011;9737;59.466;18.036;2022-07-17T12:51:51;0.55;;;0.30;;
19207;SDS011;9737;59.466;18.036;2022-07-17T12:54:20;0.20;;;0.20;;
19207;SDS011;9737;59.466;18.036;2022-07-17T12:56:48;0.55;;;0.20;;
19207;SDS011;9737;59.466;18.036;2022-07-17T12:59:17;0.90;;;0.30;;
19207;SDS011;9737;59.466;18.036;2022-07-17T13:01:46;0.30;;;0.30;;
19207;SDS011;9737;59.466;18.036;2022-07-17T13:04:14;0.30;;;0.30;;
19207;SDS011;9737;59.466;18.036;2022-07-17T13:06:42;0.82;;;0.22;;
19207;SDS011;9737;59.466;18.036;2022-07-17T13:09:10;0.30;;;0.30;;
19207;SDS011;9737;59.466;18.036;2022-07-17T13:11:40;0.28;;;0.20;;
19207;SDS011;9737;59.466;18.036;2022-07-17T13:14:08;0.20;;;0.20;;
19207;SDS011;9737;59.466;18.036;2022-07-17T13:16:40;1.13;;;0.30;;
19207;SDS011;9737;59.466;18.036;2022-07-17T13:19:08;1.25;;;0.30;;
19207;SDS011;9737;59.466;18.036;2022-07-17T13:21:37;0.65;;;0.20;;
19207;SDS011;9737;59.466;18.036;2022-07-17T13:24:05;0.25;;;0.25;;
19207;SDS011;9737;59.466;18.036;2022-07-17T13:26:33;1.95;;;0.30;;
19207;SDS011;9737;59.466;18.036;2022-07-17T13:29:02;1.65;;;0.28;;
19207;SDS011;9737;59.466;18.036;2022-07-17T13:31:30;0.52;;;0.20;;
19207;SDS011;9737;59.466;18.036;2022-07-17T13:34:00;0.20;;;0.20;;
19207;SDS011;9737;59.466;18.036;2022-07-17T13:36:29;0.75;;;0.28;;
19207;SDS011;9737;59.466;18.036;2022-07-17T13:38:57;1.45;;;0.43;;
19207;SDS011;9737;59.466;18.036;2022-07-17T13:41:25;0.20;;;0.20;;
19207;SDS011;9737;59.466;18.036;2022-07-17T13:43:53;0.30;;;0.30;;
19207;SDS011;9737;59.466;18.036;2022-07-17T13:46:21;1.17;;;0.20;;
19207;SDS011;9737;59.466;18.036;2022-07-17T13:48:49;0.47;;;0.30;;
19207;SDS011;9737;59.466;18.036;2022-07-17T13:51:18;0.20;;;0.20;;
19207;SDS011;9737;59.466;18.036;2022-07-17T13:53:48;0.30;;;0.30;;
19207;SDS011;9737;59.466;18.036;2022-07-17T13:56:16;0.30;;;0.30;;
19207;SDS011;9737;59.466;18.036;2022-07-17T13:58:45;0.43;;;0.30;;
19207;SDS011;9737;59.466;18.036;2022-07-17T14:01:13;0.20;;;0.20;;
19207;SDS011;9737;59.466;18.036;2022-07-17T14:03:48;0.30;;;0.30;;
19207;SDS011;9737;59.466;18.036;2022-07-17T14:06:16;0.38;;;0.38;;
19207;SDS011;9737;59.466;18.036;2022-07-17T14:08:46;0.70;;;0.20;;
19207;SDS011;9737;59.466;18.036;2022-07-17T14:11:14;0.20;;;0.20;;
19207;SDS011;9737;59.466;18.036;2022-07-17T14:13:42;0.40;;;0.20;;
19207;SDS011;9737;59.466;18.036;2022-07-17T14:16:16;3.75;;;0.40;;
19207;SDS011;9737;59.466;18.036;2022-07-17T14:18:44;2.92;;;0.40;;
19207;SDS011;9737;59.466;18.036;2022-07-17T14:21:26;0.63;;;0.40;;
19207;SDS011;9737;59.466;18.036;2022-07-17T14:23:56;0.95;;;0.40;;
19207;SDS011;9737;59.466;18.036;2022-07-17T14:26:27;0.57;;;0.50;;
19207;SDS011;9737;59.466;18.036;2022-07-17T14:28:55;0.30;;;0.30;;
19207;SDS011;9737;59.466;18.036;2022-07-17T14:31:23;0.85;;;0.30;;
19207;SDS011;9737;59.466;18.036;2022-07-17T14:33:51;0.25;;;0.25;;
19207;SDS011;9737;59.466;18.036;2022-07-17T14:36:20;0.63;;;0.30;;
19207;SDS011;9737;59.466;18.036;2022-07-17T14:38:48;0.55;;;0.30;;
19207;SDS011;9737;59.466;18.036;2022-07-17T14:41:17;0.20;;;0.20;;
19207;SDS011;9737;59.466;18.036;2022-07-17T14:43:46;0.43;;;0.30;;
19207;SDS011;9737;59.466;18.036;2022-07-17T14:46:14;0.20;;;0.20;;
19207;SDS011;9737;59.466;18.036;2022-07-17T14:48:42;2.35;;;0.40;;
19207;SDS011;9737;59.466;18.036;2022-07-17T14:51:11;0.30;;;0.30;;
19207;SDS011;9737;59.466;18.036;2022-07-17T14:53:39;5.47;;;0.73;;
19207;SDS011;9737;59.466;18.036;2022-07-17T14:56:07;0.75;;;0.30;;
19207;SDS011;9737;59.466;18.036;2022-07-17T14:58:38;0.40;;;0.40;;
19207;SDS011;9737;59.466;18.036;2022-07-17T15:01:07;0.40;;;0.40;;